Time;durP1;ratioP1;P1;durP2;ratioP2;P2;SDS_P1;SDS_P2;PMS_P1;PMS_P2;Temp;Humidity;BMP_temperature;BMP_pressure;BME280_temperature;BME280_humidity;BME280_pressure;Samples;Min_cycle;Max_cycle;Signal;HPM_P1;HPM_P2
2023/10/12 00:02:21;;;;;;;;;;;15.20;54.20;;;10.93;100.00;95807.34;5010072;28;19921;-49
2023/10/12 00:05:00;;;;;;;;;;;15.10;54.20;;;10.93;100.00;95811.88;5006827;28;20321;-47
2023/10/12 00:07:36;;;;;;;;;;;15.10;54.30;;;10.94;100.00;95808.16;5012930;28;19975;-48
2023/10/12 00:12:47;;;;;;;;;;;15.10;54.40;;;10.90;100.00;95810.53;5012738;28;19957;-47
2023/10/12 00:17:59;;;;;;;;;;;15.10;54.50;;;11.08;100.00;95817.25;5012650;28;19940;-47
2023/10/12 00:22:58;;;;;;;;;;;15.20;54.60;;;11.08;100.00;95791.41;5010170;28;19948;-49
2023/10/12 00:25:27;;;;;;;;;;;15.20;55.30;;;11.09;100.00;95801.03;5013012;28;20370;-47
2023/10/12 00:27:53;;;;;;;;;;;15.20;54.70;;;11.11;100.00;95795.41;4995947;28;19913;-47
2023/10/12 00:30:18;;;;;;;;;;;15.20;54.70;;;11.12;100.00;95794.34;5011808;28;20015;-47
2023/10/12 00:32:44;;;;;;;;;;;15.20;54.70;;;11.19;100.00;95802.09;5009173;28;20335;-50
2023/10/12 00:35:11;;;;;;;;;;;15.20;54.80;;;11.25;100.00;95796.53;5012473;28;19916;-51
2023/10/12 00:37:40;;;;;;;;;;;15.30;54.80;;;11.29;100.00;95794.13;5012643;28;19915;-51
2023/10/12 00:40:29;;;;;;;;;;;15.30;54.80;;;11.33;100.00;95792.53;5005959;28;19916;-48
2023/10/12 00:42:57;;;;;;;;;;;15.30;54.80;;;11.40;100.00;95797.63;5011634;28;19940;-50
2023/10/12 00:45:29;;;;;;;;;;;15.40;54.80;;;11.53;100.00;95803.25;5002012;28;19909;-51
2023/10/12 00:48:06;;;;;;;;;;;15.50;54.90;;;11.62;100.00;95800.03;5012529;28;20406;-48
2023/10/12 00:50:32;;;;;;;;;;;15.60;54.90;;;11.65;100.00;95791.50;5004873;28;19920;-51
2023/10/12 00:53:14;;;;;;;;;;;15.60;54.80;;;11.66;100.00;95793.94;5009861;28;20370;-47
2023/10/12 00:55:42;;;;;;;;;;;15.60;54.70;;;11.68;100.00;95790.97;5012375;28;19978;-47
2023/10/12 00:58:08;;;;;;;;;;;15.70;54.70;;;11.67;100.00;95784.06;5005030;28;20381;-48
2023/10/12 01:00:51;;;;;;;;;;;15.70;54.60;;;11.64;100.00;95782.72;5011927;28;19909;-49
2023/10/12 01:08:43;;;;;;;;;;;15.70;54.50;;;11.81;98.91;95790.44;5009121;28;20011;-47
2023/10/12 01:11:33;;;;;;;;;;;15.70;54.60;;;11.82;99.28;95781.38;5011769;28;19915;-49
2023/10/12 01:19:16;;;;;;;;;;;15.80;54.50;;;11.76;97.85;95782.47;5005468;28;19944;-49
2023/10/12 01:21:43;;;;;;;;;;;15.80;54.50;;;11.76;97.72;95779.78;5003509;28;19916;-49
2023/10/12 01:24:12;;;;;;;;;;;15.80;54.50;;;11.81;97.17;95780.59;5010933;28;20360;-47
2023/10/12 01:26:38;;;;;;;;;;;15.80;54.50;;;11.87;96.61;95776.06;5006785;28;19909;-48
2023/10/12 01:29:10;;;;;;;;;;;15.90;55.10;;;11.94;96.11;95771.28;5006754;28;20321;-50
2023/10/12 01:31:36;;;;;;;;;;;15.90;54.60;;;11.99;95.22;95773.13;5008613;28;19909;-49
2023/10/12 01:34:03;;;;;;;;;;;15.90;54.50;;;11.97;95.38;95759.25;5001085;28;19909;-52
2023/10/12 01:36:30;;;;;;;;;;;15.90;54.40;;;11.85;95.98;95761.41;5009424;28;20351;-48
2023/10/12 01:39:18;;;;;;;;;;;15.90;54.30;;;11.76;96.39;95759.22;5003704;28;19921;-47
2023/10/12 01:41:42;;;;;;;;;;;15.90;54.30;;;11.73;96.37;95761.63;5000112;28;19916;-48
2023/10/12 01:44:11;;;;;;;;;;;15.90;54.80;;;11.68;96.33;95757.09;5008733;28;20283;-49
2023/10/12 01:46:41;;;;;;;;;;;15.90;54.20;;;11.62;96.93;95755.47;4994946;28;20044;-47
2023/10/12 01:49:12;;;;;;;;;;;15.80;54.20;;;11.62;97.31;95762.69;5000801;28;19913;-48
2023/10/12 01:51:42;;;;;;;;;;;15.80;54.20;;;11.63;97.10;95756.31;5006728;28;19945;-47
2023/10/12 01:54:12;;;;;;;;;;;15.80;54.30;;;11.66;95.98;95750.41;5011332;28;19933;-48
2023/10/12 01:56:38;;;;;;;;;;;15.80;54.40;;;11.71;95.80;95745.88;5005538;28;19909;-47
2023/10/12 01:59:07;;;;;;;;;;;15.70;54.40;;;11.71;95.38;95743.22;5008045;28;19944;-47
2023/10/12 02:01:34;;;;;;;;;;;15.70;54.40;;;11.72;96.16;95752.00;5006991;28;20021;-51
2023/10/12 02:04:03;;;;;;;;;;;15.70;54.40;;;11.61;96.30;95743.22;4996644;28;20004;-48
2023/10/12 02:06:29;;;;;;;;;;;15.70;54.30;;;11.58;95.82;95749.88;5011382;28;19909;-47
2023/10/12 02:09:11;;;;;;;;;;;15.70;54.30;;;11.48;96.59;95749.09;5007334;28;19924;-48
2023/10/12 02:11:44;;;;;;;;;;;15.70;54.20;;;11.43;96.89;95744.53;5011293;28;19909;-49
2023/10/12 02:14:33;;;;;;;;;;;15.60;54.30;;;11.35;97.02;95745.88;5008113;28;19909;-47
2023/10/12 02:17:02;;;;;;;;;;;15.50;54.20;;;11.20;98.49;95743.19;5006924;28;19909;-47
2023/10/12 02:19:49;;;;;;;;;;;15.50;54.30;;;11.13;98.94;95749.84;5004489;28;19909;-48
2023/10/12 02:22:25;;;;;;;;;;;15.40;54.20;;;11.08;99.58;95740.75;4999667;28;19908;-51
2023/10/12 02:24:59;;;;;;;;;;;15.40;54.30;;;11.06;99.83;95742.91;5010993;28;19991;-48
2023/10/12 02:27:25;;;;;;;;;;;15.30;54.40;;;11.02;100.00;95747.13;5011360;28;20033;-47
2023/10/12 02:29:56;;;;;;;;;;;15.30;54.40;;;11.02;100.00;95749.81;5012706;28;20382;-47
2023/10/12 02:32:25;;;;;;;;;;;15.30;54.50;;;10.98;100.00;95737.28;5011918;28;20015;-48
2023/10/12 02:34:57;;;;;;;;;;;15.20;54.50;;;10.91;99.83;95745.53;5010185;28;19944;-47
2023/10/12 02:37:24;;;;;;;;;;;15.20;54.50;;;10.86;100.00;95740.97;5009578;28;19980;-48
2023/10/12 02:39:53;;;;;;;;;;;15.10;54.50;;;10.77;100.00;95744.41;5005994;28;19955;-47
2023/10/12 02:42:35;;;;;;;;;;;15.10;54.50;;;10.71;100.00;95746.25;5015095;28;19999;-47
2023/10/12 02:47:43;;;;;;;;;;;15.00;54.70;;;10.63;100.00;95750.22;5014186;28;19913;-47
2023/10/12 02:52:37;;;;;;;;;;;14.90;54.80;;;10.56;100.00;95746.19;5001681;28;19955;-47
2023/10/12 02:57:53;;;;;;;;;;;14.80;54.90;;;10.49;100.00;95743.75;5006121;28;19962;-47
2023/10/12 03:00:46;;;;;;;;;;;14.80;54.90;;;10.49;100.00;95748.28;5014161;28;19947;-49
2023/10/12 03:03:25;;;;;;;;;;;14.70;55.00;;;10.54;100.00;95753.66;5009680;28;20360;-48
2023/10/12 03:05:58;;;;;;;;;;;14.70;55.10;;;10.59;100.00;95751.81;5014362;28;19909;-49
2023/10/12 03:08:30;;;;;;;;;;;14.80;55.30;;;10.63;100.00;95752.09;5010795;28;19909;-49
2023/10/12 03:13:35;;;;;;;;;;;14.80;55.30;;;10.71;100.00;95754.22;5014281;28;19934;-47
2023/10/12 03:18:42;;;;;;;;;;;14.80;55.40;;;10.87;100.00;95750.59;5010501;28;19909;-47
2023/10/12 03:21:11;;;;;;;;;;;14.80;55.40;;;10.91;100.00;95752.72;5011615;28;19962;-49
2023/10/12 03:23:39;;;;;;;;;;;14.90;55.50;;;10.98;99.09;95746.06;5013910;28;20272;-47
2023/10/12 03:28:50;;;;;;;;;;;14.90;55.50;;;11.04;98.23;95757.56;5008176;28;19920;-47
2023/10/12 03:31:33;;;;;;;;;;;15.00;55.40;;;11.02;98.20;95755.13;5009113;28;20000;-48
2023/10/12 03:34:00;;;;;;;;;;;15.00;55.40;;;11.10;98.05;95759.97;5007407;28;20338;-47
2023/10/12 03:36:36;;;;;;;;;;;15.00;55.40;;;11.08;97.62;95750.63;5013887;28;19963;-50
2023/10/12 03:39:14;;;;;;;;;;;15.10;55.40;;;11.04;97.90;95747.69;5005046;28;19909;-51
2023/10/12 03:44:41;;;;;;;;;;;15.10;55.20;;;10.96;99.11;95744.72;5009556;28;19983;-48
2023/10/12 03:52:39;;;;;;;;;;;15.10;55.30;;;11.01;98.88;95740.22;5007257;28;19916;-48
2023/10/12 03:58:00;;;;;;;;;;;15.10;55.40;;;11.14;98.18;95738.13;5004156;28;19999;-49
2023/10/12 04:00:35;;;;;;;;;;;15.10;55.40;;;11.18;97.72;95737.31;5013095;28;19935;-47
2023/10/12 04:03:10;;;;;;;;;;;15.20;55.40;;;11.17;97.10;95730.38;5004115;28;19913;-51
2023/10/12 04:05:46;;;;;;;;;;;15.20;55.40;;;11.14;97.71;95741.56;5013045;28;19909;-47
2023/10/12 04:08:39;;;;;;;;;;;15.20;55.40;;;11.16;97.58;95730.66;5010343;28;19909;-50
2023/10/12 04:13:55;;;;;;;;;;;15.20;55.30;;;11.09;97.90;95730.88;5012899;28;19920;-49
2023/10/12 04:21:22;;;;;;;;;;;15.20;55.30;;;11.07;98.39;95731.16;5002534;28;20437;-47
2023/10/12 04:24:27;;;;;;;;;;;15.20;55.30;;;11.08;97.54;95729.28;5002733;28;20388;-47
2023/10/12 04:29:21;;;;;;;;;;;15.20;55.30;;;11.15;98.41;95727.16;5012156;28;20330;-47
2023/10/12 04:31:56;;;;;;;;;;;15.30;55.40;;;11.17;97.72;95724.25;5008196;28;19932;-47
2023/10/12 04:34:28;;;;;;;;;;;15.30;55.40;;;11.22;97.72;95737.56;5005627;28;19909;-48
2023/10/12 04:37:10;;;;;;;;;;;15.30;55.40;;;11.25;97.70;95737.88;5012500;28;19909;-47
2023/10/12 04:39:37;;;;;;;;;;;15.40;55.40;;;11.27;97.28;95742.94;5005780;28;20318;-47
2023/10/12 04:47:09;;;;;;;;;;;15.40;55.30;;;11.24;97.24;95746.91;5011547;28;20012;-46
2023/10/12 04:54:59;;;;;;;;;;;15.40;55.20;;;11.21;100.00;95751.97;5011925;28;19909;-50
2023/10/12 04:57:34;;;;;;;;;;;15.40;55.30;;;11.19;100.00;95757.59;5011678;28;19909;-50
2023/10/12 05:07:53;;;;;;;;;;;15.40;55.40;;;11.18;100.00;95752.50;5012273;28;20447;-46
2023/10/12 05:13:05;;;;;;;;;;;15.30;55.40;;;11.16;100.00;95752.00;5011414;28;19913;-46
2023/10/12 05:18:34;;;;;;;;;;;15.30;55.50;;;11.16;100.00;95758.13;4999211;28;19916;-47
2023/10/12 05:21:00;;;;;;;;;;;15.30;55.60;;;11.10;100.00;95746.63;5028905;28;20292;-47
2023/10/12 05:23:27;;;;;;;;;;;15.30;55.50;;;11.08;100.00;95751.41;5011184;28;19944;-48
2023/10/12 05:28:27;;;;;;;;;;;15.30;55.50;;;11.03;100.00;95755.94;5010675;28;19974;-50
2023/10/12 05:31:21;;;;;;;;;;;15.30;55.60;;;10.97;100.00;95767.63;5011712;28;20268;-47
2023/10/12 05:34:00;;;;;;;;;;;15.20;55.50;;;11.01;100.00;95760.75;5009858;28;19915;-47
2023/10/12 05:36:28;;;;;;;;;;;15.20;55.60;;;11.08;99.52;95759.41;5004701;28;19910;-45
2023/10/12 05:39:11;;;;;;;;;;;15.30;55.70;;;11.09;99.19;95770.88;5010877;28;20007;-47
2023/10/12 05:41:39;;;;;;;;;;;15.30;55.70;;;11.09;99.06;95774.38;5004682;28;19909;-46
2023/10/12 05:44:15;;;;;;;;;;;15.30;55.70;;;11.10;98.62;95772.50;5010795;28;20292;-51
2023/10/12 05:46:45;;;;;;;;;;;15.30;55.70;;;11.16;98.93;95779.44;5011473;28;19913;-49
2023/10/12 05:49:13;;;;;;;;;;;15.30;55.70;;;11.15;97.98;95777.81;5009400;28;20379;-51
2023/10/12 05:51:46;;;;;;;;;;;15.30;55.70;;;11.13;98.82;95787.19;5009829;28;19909;-51
2023/10/12 05:54:19;;;;;;;;;;;15.30;55.60;;;11.12;98.79;95802.34;5010422;28;20383;-46
2023/10/12 05:56:44;;;;;;;;;;;15.30;55.60;;;11.12;98.53;95810.34;5009483;28;19956;-49
2023/10/12 05:59:14;;;;;;;;;;;15.30;55.60;;;11.11;98.69;95806.88;5011204;28;19968;-46
2023/10/12 06:01:48;;;;;;;;;;;15.30;55.60;;;11.09;99.26;95802.88;5014000;28;19909;-49
2023/10/12 06:04:15;;;;;;;;;;;15.30;55.60;;;11.01;99.86;95800.72;5012480;28;20008;-49
2023/10/12 06:06:43;;;;;;;;;;;15.30;55.50;;;11.00;99.41;95796.44;5015057;28;20054;-46
2023/10/12 06:09:15;;;;;;;;;;;15.30;55.60;;;11.04;98.89;95802.88;5013299;28;19913;-48
2023/10/12 06:11:46;;;;;;;;;;;15.30;55.60;;;11.07;98.86;95805.81;5014947;28;20446;-46
2023/10/12 06:14:14;;;;;;;;;;;15.30;55.60;;;11.10;98.59;95810.63;5013745;28;19947;-46
2023/10/12 06:16:41;;;;;;;;;;;15.40;55.70;;;11.04;99.99;95806.31;5015126;28;19909;-46
2023/10/12 06:19:26;;;;;;;;;;;15.40;55.80;;;11.08;98.97;95815.41;5014236;28;20418;-50
2023/10/12 06:21:57;;;;;;;;;;;15.40;55.60;;;11.01;99.65;95814.06;5009345;28;19959;-48
2023/10/12 06:24:35;;;;;;;;;;;15.40;55.50;;;10.98;99.56;95811.91;5014196;28;19909;-46
2023/10/12 06:27:24;;;;;;;;;;;15.40;55.50;;;11.02;99.38;95824.44;5013689;28;19913;-47
2023/10/12 06:29:53;;;;;;;;;;;15.40;55.60;;;11.02;98.83;95820.97;5013990;28;19917;-46
2023/10/12 06:32:25;;;;;;;;;;;15.40;55.50;;;11.05;99.15;95823.13;5011977;28;20590;-46
2023/10/12 06:45:51;;;;;;;;;;;15.50;55.60;;;11.17;100.00;95842.34;5013799;28;19917;-45
2023/10/12 06:48:43;;;;;;;;;;;15.50;55.60;;;11.20;100.00;95841.84;5013464;28;19908;-46
2023/10/12 06:51:15;;;;;;;;;;;15.60;55.60;;;11.27;100.00;95847.72;5011321;28;19963;-49
2023/10/12 06:53:51;;;;;;;;;;;15.70;55.60;;;11.42;99.56;95851.50;5013880;28;20327;-46
2023/10/12 06:58:46;;;;;;;;;;;15.90;55.70;;;11.64;97.32;95853.97;5014445;28;20333;-47
2023/10/12 07:01:27;;;;;;;;;;;16.00;55.60;;;11.75;96.96;95864.38;5014579;28;20000;-47
2023/10/12 07:03:53;;;;;;;;;;;16.10;55.50;;;11.84;96.03;95861.97;5013588;28;19909;-48
2023/10/12 07:06:19;;;;;;;;;;;16.30;55.50;;;11.95;94.93;95860.97;5015310;28;20003;-49
2023/10/12 07:08:46;;;;;;;;;;;16.40;55.40;;;12.07;95.92;95852.69;5013995;28;19921;-49
2023/10/12 07:11:20;;;;;;;;;;;16.60;55.40;;;12.21;94.42;95863.63;5014304;28;19909;-49
2023/10/12 07:13:47;;;;;;;;;;;16.70;55.20;;;12.40;93.65;95866.56;5007765;28;19909;-47
2023/10/12 07:16:20;;;;;;;;;;;17.00;55.10;;;12.57;92.54;95858.28;5013220;28;19909;-52
2023/10/12 07:18:49;;;;;;;;;;;17.20;55.00;;;12.82;90.19;95870.78;5012653;28;19915;-51
2023/10/12 07:21:21;;;;;;;;;;;17.50;54.90;;;13.07;89.97;95875.25;5011981;28;19912;-49
2023/10/12 07:23:56;;;;;;;;;;;17.70;54.80;;;13.25;88.49;95868.50;5012765;28;19932;-48
2023/10/12 07:26:30;;;;;;;;;;;17.90;54.60;;;13.47;88.50;95870.81;5011980;28;19909;-49
2023/10/12 07:28:57;;;;;;;;;;;18.20;54.40;;;13.72;87.50;95868.00;5028375;28;19967;-48
2023/10/12 07:36:35;;;;;;;;;;;19.20;53.70;;;14.67;81.92;95863.28;5013796;28;19917;-49
2023/10/12 07:39:27;;;;;;;;;;;19.60;53.40;;;15.15;79.53;95865.97;5009101;28;19917;-52
2023/10/12 07:42:01;;;;;;;;;;;20.20;53.10;;;15.69;77.52;95867.44;5013745;28;20452;-50
2023/10/12 07:44:38;;;;;;;;;;;20.70;52.80;;;16.10;75.95;95862.28;5012363;28;20521;-46
2023/10/12 07:47:13;;;;;;;;;;;21.10;52.40;;;16.48;71.60;95861.41;5013380;28;19936;-48
2023/10/12 07:49:48;;;;;;;;;;;21.60;52.10;;;16.95;69.83;95870.28;5013791;28;19936;-50
2023/10/12 07:54:47;;;;;;;;;;;22.60;51.20;;;17.90;66.35;95875.94;5013070;28;19909;-50
2023/10/12 07:57:17;;;;;;;;;;;23.10;50.80;;;18.40;65.26;95870.44;5012504;28;19909;-49
2023/10/12 08:10:48;;;;;;;;;;;25.60;48.60;;;20.47;55.40;95882.97;5012432;28;20344;-47
2023/10/12 08:24:09;;;;;;;;;;;27.00;46.50;;;21.76;52.16;95879.38;5011966;28;19909;-47
2023/10/12 08:32:55;;;;;;;;;;;28.20;45.20;;;22.79;48.61;95853.28;5021054;28;19909;-48
2023/10/12 08:35:10;;;;;;;;;;;28.60;44.40;;;23.22;47.19;95848.50;5006047;28;19940;-48
2023/10/12 08:37:38;;;;;;;;;;;29.20;43.80;;;23.86;45.49;95858.69;5012521;28;19909;-52
2023/10/12 08:40:17;;;;;;;;;;;29.80;43.30;;;24.18;43.31;95850.66;5011648;28;19913;-48
2023/10/12 08:42:55;;;;;;;;;;;30.20;42.50;;;24.21;43.80;95856.22;5012524;28;19909;-48
2023/10/12 08:45:26;;;;;;;;;;;30.30;42.00;;;23.99;44.02;95862.97;5005447;28;19925;-49
2023/10/12 08:48:01;;;;;;;;;;;30.20;41.10;;;24.27;44.06;95875.03;5012318;28;20382;-48
2023/10/12 08:50:47;;;;;;;;;;;30.20;41.20;;;24.49;42.91;95871.78;5011669;28;19970;-50
2023/10/12 08:53:20;;;;;;;;;;;30.30;41.10;;;24.77;41.92;95870.97;5011772;28;20046;-51
2023/10/12 08:55:51;;;;;;;;;;;30.40;40.80;;;24.75;40.90;95867.81;5011961;28;19999;-48
2023/10/12 08:58:43;;;;;;;;;;;30.60;40.60;;;24.90;40.94;95870.56;5010047;28;20003;-48
2023/10/12 09:01:10;;;;;;;;;;;30.90;40.30;;;25.28;40.40;95879.31;5010819;28;19909;-48
2023/10/12 09:03:39;;;;;;;;;;;31.30;39.90;;;25.49;38.81;95868.13;5010760;28;19948;-50
2023/10/12 09:08:56;;;;;;;;;;;32.00;39.20;;;25.18;38.93;95875.19;4992134;28;20398;-49
2023/10/12 09:11:33;;;;;;;;;;;32.40;38.50;;;25.29;38.99;95880.88;5011531;28;20318;-48
2023/10/12 09:14:00;;;;;;;;;;;32.60;37.80;;;25.46;39.29;95871.56;5011523;28;19909;-55
2023/10/12 09:16:27;;;;;;;;;;;32.90;37.00;;;25.72;38.54;95868.28;5010865;28;19909;-48
2023/10/12 09:18:57;;;;;;;;;;;33.10;36.50;;;26.14;38.79;95878.59;5011782;28;20322;-50
2023/10/12 09:21:39;;;;;;;;;;;33.20;36.30;;;26.38;37.48;95872.84;5010577;28;19909;-50
2023/10/12 09:24:21;;;;;;;;;;;33.50;36.20;;;26.08;38.31;95876.13;5011366;28;19962;-50
2023/10/12 09:26:55;;;;;;;;;;;33.60;35.90;;;25.81;38.56;95883.31;5010806;28;19909;-49
2023/10/12 09:29:23;;;;;;;;;;;33.50;35.60;;;25.94;39.02;95878.53;5011558;28;20372;-50
2023/10/12 09:35:25;;;;;;;;;;;32.90;34.70;;;25.29;40.06;95878.16;5008404;28;19920;-55
2023/10/12 09:37:45;;;;;;;;;;;32.40;34.90;;;25.10;40.97;95885.09;5008338;28;20355;-53
2023/10/12 09:40:25;;;;;;;;;;;31.90;34.80;;;25.06;41.12;95876.00;5010359;28;19920;-54
2023/10/12 09:42:59;;;;;;;;;;;31.70;34.90;;;25.62;40.58;95880.53;5008229;28;19963;-53
2023/10/12 09:45:34;;;;;;;;;;;31.80;35.90;;;25.51;39.58;95871.28;5008952;28;19975;-51
2023/10/12 09:48:05;;;;;;;;;;;32.00;35.00;;;25.41;39.87;95872.63;5008673;28;20007;-55
2023/10/12 09:50:35;;;;;;;;;;;32.20;34.50;;;25.81;39.67;95874.34;5009539;28;19963;-51
2023/10/12 09:53:21;;;;;;;;;;;32.40;34.60;;;25.85;39.57;95861.56;5010327;28;20358;-54
2023/10/12 09:56:10;;;;;;;;;;;32.30;34.50;;;25.96;38.15;95872.75;5009890;28;20007;-48
2023/10/12 10:01:49;;;;;;;;;;;32.30;34.50;;;26.10;38.02;95872.25;5010738;28;19963;-53
2023/10/12 10:09:57;;;;;;;;;;;33.10;33.90;;;26.89;35.89;95867.22;5004885;28;19960;-50
2023/10/12 10:12:27;;;;;;;;;;;33.40;33.80;;;26.88;34.35;95860.16;5009695;28;19909;-58
2023/10/12 10:15:10;;;;;;;;;;;33.60;33.40;;;26.90;34.37;95862.53;5008921;28;20035;-53
2023/10/12 10:17:57;;;;;;;;;;;33.90;33.10;;;27.18;34.33;95868.53;5011426;28;19955;-50
2023/10/12 10:23:03;;;;;;;;;;;34.50;32.40;;;28.14;33.12;95863.75;5026286;28;20051;-48
2023/10/12 10:25:45;;;;;;;;;;;34.90;32.30;;;28.50;32.18;95866.97;5011107;28;20282;-51
2023/10/12 10:28:34;;;;;;;;;;;35.40;32.10;;;28.43;31.70;95858.66;5010178;28;19913;-51
2023/10/12 10:31:00;;;;;;;;;;;35.80;31.80;;;28.44;32.38;95859.44;5009818;28;19936;-52
2023/10/12 10:33:29;;;;;;;;;;;36.20;30.80;;;28.67;32.18;95851.88;5009523;28;20355;-51
2023/10/12 10:44:22;;;;;;;;;;;37.00;29.40;;;29.70;30.51;95856.75;5010008;28;19921;-54
2023/10/12 10:46:57;;;;;;;;;;;37.20;29.30;;;30.15;30.03;95855.47;5010750;28;19957;-48
2023/10/12 10:49:30;;;;;;;;;;;37.60;29.20;;;30.47;28.73;95854.06;5029560;28;19919;-53
2023/10/12 10:54:39;;;;;;;;;;;38.20;28.80;;;30.84;29.21;95842.81;5022209;23;19925;-47
2023/10/12 10:57:15;;;;;;;;;;;38.30;28.50;;;30.47;29.25;95835.59;4999264;28;20004;-48
2023/10/12 10:59:45;;;;;;;;;;;38.50;28.10;;;30.56;28.53;95830.53;4994977;28;20280;-49
2023/10/12 11:02:12;;;;;;;;;;;38.60;27.90;;;30.11;28.86;95827.16;4995028;28;20667;-49
2023/10/12 11:04:44;;;;;;;;;;;38.60;27.70;;;29.50;29.28;95826.81;5005703;28;19909;-45
2023/10/12 11:07:15;;;;;;;;;;;38.50;27.20;;;29.28;29.74;95819.59;5008179;28;19909;-46
2023/10/12 11:10:05;;;;;;;;;;;38.40;26.80;;;28.62;30.08;95815.81;5004942;28;19913;-51
2023/10/12 11:12:32;;;;;;;;;;;38.10;26.40;;;28.80;30.03;95814.84;5036772;28;19970;-49
2023/10/12 11:15:07;;;;;;;;;;;38.00;26.60;;;29.26;30.62;95819.16;5009615;28;20149;-47
2023/10/12 11:20:27;;;;;;;;;;;38.00;26.20;;;28.81;29.93;95810.13;5030398;28;19920;-46
2023/10/12 11:22:57;;;;;;;;;;;37.90;26.00;;;29.02;29.18;95813.09;5002073;28;20008;-47
2023/10/12 11:25:26;;;;;;;;;;;37.80;26.00;;;29.29;29.37;95815.66;5004168;28;19909;-44
2023/10/12 11:27:53;;;;;;;;;;;37.80;25.90;;;29.59;29.01;95809.22;5006456;28;19909;-44
2023/10/12 11:30:35;;;;;;;;;;;37.90;25.70;;;29.98;28.09;95812.22;5005052;28;19921;-46
2023/10/12 11:33:09;;;;;;;;;;;38.00;25.80;;;30.08;28.16;95805.97;5010452;28;20027;-45
2023/10/12 11:35:40;;;;;;;;;;;38.00;25.80;;;30.31;27.80;95802.19;5012840;28;20047;-50
2023/10/12 11:38:18;;;;;;;;;;;38.10;25.90;;;30.22;27.22;95804.50;5008310;28;19909;-45
2023/10/12 11:40:52;;;;;;;;;;;38.30;26.00;;;29.76;27.96;95797.59;5013046;28;19909;-47
2023/10/12 11:43:19;;;;;;;;;;;38.40;25.40;;;29.54;27.97;95782.91;5007636;28;19909;-44
2023/10/12 11:46:03;;;;;;;;;;;38.20;25.10;;;29.83;28.22;95780.34;5032853;28;19910;-50
2023/10/12 11:48:31;;;;;;;;;;;38.10;25.20;;;30.04;27.82;95788.69;5014860;28;20342;-48
2023/10/12 11:50:59;;;;;;;;;;;38.10;25.30;;;30.15;28.06;95781.31;5006015;28;19909;-44
2023/10/12 11:53:26;;;;;;;;;;;38.20;25.10;;;30.45;27.62;95783.00;5008110;28;19947;-49
2023/10/12 11:56:35;;;;;;;;;;;38.30;25.20;;;30.25;27.95;95781.75;5002056;28;19952;-47
2023/10/12 11:58:54;;;;;;;;;;;38.40;25.10;;;29.90;27.55;95772.19;4999934;28;19912;-45
2023/10/12 12:01:33;;;;;;;;;;;38.40;25.10;;;29.93;27.92;95774.16;5010527;28;19915;-44
2023/10/12 12:04:02;;;;;;;;;;;38.40;25.00;;;29.94;27.94;95775.72;5004629;28;20367;-51
2023/10/12 12:06:32;;;;;;;;;;;38.40;24.90;;;29.85;27.68;95778.81;5004424;28;20368;-51
2023/10/12 12:08:59;;;;;;;;;;;38.40;25.00;;;29.60;27.79;95772.38;5009548;28;20402;-46
2023/10/12 12:11:31;;;;;;;;;;;38.40;24.50;;;29.15;28.33;95753.28;5009352;28;19916;-45
2023/10/12 12:13:57;;;;;;;;;;;38.50;24.30;;;29.19;28.53;95767.78;5010283;28;19909;-49
2023/10/12 12:16:23;;;;;;;;;;;38.40;24.30;;;28.91;28.42;95760.09;5010882;28;19917;-46
2023/10/12 12:18:53;;;;;;;;;;;38.30;24.00;;;29.14;28.71;95759.91;5009179;28;19916;-45
2023/10/12 12:21:31;;;;;;;;;;;38.20;23.90;;;29.28;28.45;95756.50;5005970;28;19936;-46
2023/10/12 12:26:46;;;;;;;;;;;38.20;24.00;;;29.03;28.74;95750.81;5002864;28;19920;-47
2023/10/12 12:29:15;;;;;;;;;;;38.00;23.80;;;29.17;29.03;95748.19;5004202;28;19913;-47
2023/10/12 12:31:41;;;;;;;;;;;37.50;23.90;;;29.48;28.50;95754.25;5002252;28;19916;-48
2023/10/12 12:34:07;;;;;;;;;;;37.40;24.00;;;29.16;28.26;95749.34;5003131;28;19910;-45
2023/10/12 12:36:33;;;;;;;;;;;37.50;24.00;;;29.09;28.74;95748.53;5016735;28;20012;-47
2023/10/12 12:41:26;;;;;;;;;;;37.50;23.70;;;29.47;27.92;95739.75;5000711;28;19916;-46
2023/10/12 12:43:53;;;;;;;;;;;37.60;23.80;;;29.81;28.30;95741.53;4996872;28;19916;-46
2023/10/12 12:46:20;;;;;;;;;;;37.70;23.80;;;30.03;27.62;95739.69;5001576;28;20252;-44
2023/10/12 12:48:50;;;;;;;;;;;37.80;23.90;;;29.57;27.84;95741.00;5004964;28;19909;-46
2023/10/12 12:51:17;;;;;;;;;;;37.90;23.70;;;29.16;28.31;95735.66;5009099;28;19913;-46
2023/10/12 12:53:46;;;;;;;;;;;37.90;23.50;;;29.48;28.30;95737.81;5004742;28;20009;-45
2023/10/12 12:56:17;;;;;;;;;;;37.90;23.50;;;29.62;27.93;95732.44;5024472;28;19913;-44
2023/10/12 12:58:48;;;;;;;;;;;37.90;23.60;;;29.63;28.50;95736.75;5010505;28;19909;-44
2023/10/12 13:01:17;;;;;;;;;;;38.00;23.60;;;29.76;27.90;95728.97;5002380;28;19932;-44
2023/10/12 13:03:44;;;;;;;;;;;38.00;23.60;;;29.93;27.48;95716.50;5004831;28;20290;-49
2023/10/12 13:06:11;;;;;;;;;;;38.10;23.80;;;30.05;27.57;95729.06;5004562;28;19962;-50
2023/10/12 13:08:38;;;;;;;;;;;38.00;23.70;;;29.82;27.74;95721.94;4999693;28;20015;-52
2023/10/12 13:11:04;;;;;;;;;;;37.90;23.70;;;29.80;27.89;95718.00;5007258;28;19917;-51
2023/10/12 13:13:33;;;;;;;;;;;37.70;23.70;;;29.64;28.22;95716.34;5003140;28;19909;-49
2023/10/12 13:16:05;;;;;;;;;;;37.60;23.80;;;29.82;28.82;95710.94;5005727;28;20350;-47
2023/10/12 13:18:35;;;;;;;;;;;37.50;23.90;;;29.80;28.49;95712.50;5008531;28;20055;-49
2023/10/12 13:21:06;;;;;;;;;;;37.50;23.90;;;29.47;28.39;95712.31;5006533;28;20008;-51
2023/10/12 13:23:35;;;;;;;;;;;37.40;23.80;;;29.39;27.51;95716.19;5004780;28;19913;-48
2023/10/12 13:26:13;;;;;;;;;;;37.40;23.70;;;29.26;28.52;95709.47;5006345;28;19912;-48
2023/10/12 13:28:44;;;;;;;;;;;37.50;23.60;;;29.20;28.53;95709.03;5001630;28;20398;-53
2023/10/12 13:31:13;;;;;;;;;;;37.40;23.60;;;29.50;29.33;95717.03;5003195;28;20008;-46
2023/10/12 13:33:41;;;;;;;;;;;37.30;23.60;;;29.62;29.13;95712.44;5003584;28;20015;-51
2023/10/12 13:36:08;;;;;;;;;;;37.10;23.80;;;29.25;28.33;95711.41;5001584;28;20489;-53
2023/10/12 13:38:36;;;;;;;;;;;37.00;23.90;;;29.18;28.82;95707.84;5000630;28;20013;-47
2023/10/12 13:41:02;;;;;;;;;;;36.90;23.90;;;29.26;28.89;95706.72;5009784;28;19952;-51
2023/10/12 13:43:34;;;;;;;;;;;37.00;24.00;;;28.99;29.29;95717.09;5008129;28;20322;-49
2023/10/12 13:46:07;;;;;;;;;;;36.80;23.80;;;29.02;29.50;95710.88;5007956;28;19951;-55
2023/10/12 13:48:37;;;;;;;;;;;36.70;23.90;;;28.75;28.91;95705.53;5007237;28;19925;-52
2023/10/12 13:51:08;;;;;;;;;;;36.50;23.90;;;28.61;29.35;95702.66;5007941;28;19956;-51
2023/10/12 13:53:38;;;;;;;;;;;36.40;23.90;;;28.36;30.30;95703.22;5003340;28;19917;-53
2023/10/12 13:56:08;;;;;;;;;;;36.20;23.90;;;28.44;30.60;95695.88;5006576;28;19909;-52
2023/10/12 13:58:44;;;;;;;;;;;36.00;23.90;;;28.26;29.79;95689.41;5006796;28;19913;-50
2023/10/12 14:01:18;;;;;;;;;;;35.90;24.00;;;27.96;30.13;95689.50;5004773;28;19963;-49
2023/10/12 14:03:45;;;;;;;;;;;35.70;24.10;;;28.25;30.07;95687.84;5008933;28;19913;-50
2023/10/12 14:06:12;;;;;;;;;;;35.50;24.20;;;28.12;30.48;95690.84;5006756;28;19913;-49
2023/10/12 14:08:42;;;;;;;;;;;35.50;24.40;;;28.10;30.40;95692.38;5004740;28;19913;-54
2023/10/12 14:11:14;;;;;;;;;;;35.30;24.40;;;28.08;31.09;95689.22;5006885;28;19944;-53
2023/10/12 14:13:40;;;;;;;;;;;35.20;24.50;;;28.35;30.84;95681.66;5001967;28;19909;-49
2023/10/12 14:16:10;;;;;;;;;;;35.20;24.60;;;28.36;30.31;95681.31;4999554;28;19956;-55
2023/10/12 14:18:38;;;;;;;;;;;35.50;24.60;;;28.50;30.59;95690.84;5010624;28;19909;-55
2023/10/12 14:21:11;;;;;;;;;;;35.70;24.50;;;28.70;30.48;95688.66;5010099;28;20008;-56
2023/10/12 14:23:45;;;;;;;;;;;35.80;24.60;;;28.61;30.00;95680.75;5005239;28;19909;-54
2023/10/12 14:26:22;;;;;;;;;;;36.20;24.60;;;28.59;30.13;95683.09;5011055;28;19935;-54
2023/10/12 14:28:54;;;;;;;;;;;36.50;24.30;;;28.36;30.17;95680.50;5005620;28;19913;-55